createdAt,value
2018-05-14T00:01:06.290Z,14.10
2018-05-14T00:03:35.000Z,14.10
2018-05-14T00:06:03.525Z,14.10
2018-05-14T00:08:31.955Z,14.10
2018-05-14T00:11:01.186Z,14.00
2018-05-14T00:13:29.638Z,14.00
2018-05-14T00:15:58.842Z,14.00
2018-05-14T00:18:27.606Z,13.90
2018-05-14T00:20:56.327Z,14.00
2018-05-14T00:23:24.765Z,13.90
2018-05-14T00:25:53.989Z,13.80
2018-05-14T00:28:22.701Z,13.80
2018-05-14T00:30:52.169Z,13.80
2018-05-14T00:33:20.899Z,13.80
2018-05-14T00:35:49.429Z,13.80
2018-05-14T00:38:17.881Z,13.80
2018-05-14T00:40:47.125Z,13.80
2018-05-14T00:43:16.350Z,13.80
2018-05-14T00:45:44.785Z,13.70
2018-05-14T00:48:14.417Z,13.70
2018-05-14T00:50:43.125Z,13.70
2018-05-14T00:53:12.592Z,13.70
2018-05-14T00:55:41.197Z,13.70
2018-05-14T00:58:09.879Z,13.70
2018-05-14T01:00:38.222Z,13.70
2018-05-14T01:03:06.852Z,13.70
2018-05-14T01:05:35.628Z,13.70
2018-05-14T01:08:04.601Z,13.70
2018-05-14T01:10:33.320Z,13.70
2018-05-14T01:13:02.218Z,13.60
2018-05-14T01:15:30.672Z,13.60
2018-05-14T01:18:00.152Z,13.50
2018-05-14T01:20:29.376Z,13.50
2018-05-14T01:22:58.850Z,13.50
2018-05-14T01:25:28.070Z,13.50
2018-05-14T01:27:56.836Z,13.50
2018-05-14T01:30:25.774Z,13.50
2018-05-14T01:32:54.204Z,13.50
2018-05-14T01:35:23.396Z,13.40
2018-05-14T01:37:51.923Z,13.40
2018-05-14T01:40:20.698Z,13.40
2018-05-14T01:42:49.396Z,13.50
2018-05-14T01:45:17.518Z,13.50
2018-05-14T01:47:45.956Z,13.50
2018-05-14T01:50:15.637Z,13.60
2018-05-14T01:52:44.072Z,13.60
2018-05-14T01:55:12.616Z,13.60
2018-05-14T01:57:42.094Z,13.60
2018-05-14T02:00:11.211Z,13.60
2018-05-14T02:02:39.665Z,13.60
2018-05-14T02:05:08.861Z,13.70
2018-05-14T02:07:38.331Z,13.70
2018-05-14T02:10:07.076Z,13.70
2018-05-14T02:12:35.641Z,13.70
2018-05-14T02:15:03.958Z,13.80
2018-05-14T02:17:32.413Z,13.80
2018-05-14T02:20:01.020Z,13.80
2018-05-14T02:22:29.476Z,13.80
2018-05-14T02:24:58.175Z,13.90
2018-05-14T02:27:26.616Z,13.90
2018-05-14T02:29:55.100Z,13.90
2018-05-14T02:32:23.807Z,13.90
2018-05-14T02:34:53.290Z,13.90
2018-05-14T02:37:22.022Z,13.90
2018-05-14T02:39:50.753Z,13.90
2018-05-14T02:42:20.229Z,14.00
2018-05-14T02:44:49.073Z,14.00
2018-05-14T02:47:17.513Z,14.00
2018-05-14T02:49:46.897Z,14.00
2018-05-14T02:52:16.143Z,14.00
2018-05-14T02:54:44.583Z,14.00
2018-05-14T02:57:13.033Z,14.00
2018-05-14T02:59:41.641Z,14.00
2018-05-14T03:02:10.078Z,13.90
2018-05-14T03:04:39.165Z,13.80
2018-05-14T03:07:07.713Z,13.70
2018-05-14T03:09:37.121Z,13.70
2018-05-14T03:12:05.812Z,13.70
2018-05-14T03:14:35.045Z,13.70
2018-05-14T03:17:04.529Z,13.80
2018-05-14T03:19:33.005Z,13.80
2018-05-14T03:22:02.705Z,13.90
2018-05-14T03:24:31.421Z,13.80
2018-05-14T03:26:59.857Z,13.80
2018-05-14T03:29:28.564Z,13.90
2018-05-14T03:31:57.356Z,13.90
2018-05-14T03:34:26.067Z,13.90
2018-05-14T03:36:54.585Z,14.00
2018-05-14T03:39:23.285Z,13.90
2018-05-14T03:41:52.485Z,13.90
2018-05-14T03:44:21.713Z,13.90
2018-05-14T03:46:50.282Z,13.90
2018-05-14T03:49:18.914Z,13.90
2018-05-14T03:51:47.656Z,13.90
2018-05-14T03:54:17.137Z,13.90
2018-05-14T03:56:45.876Z,13.90
2018-05-14T03:59:25.664Z,14.00
2018-05-14T04:02:16.647Z,14.00
2018-05-14T04:04:56.601Z,14.00
2018-05-14T04:07:26.053Z,14.00
2018-05-14T04:09:55.529Z,14.10
2018-05-14T04:12:24.245Z,14.00
2018-05-14T04:14:52.812Z,14.00
2018-05-14T04:17:22.213Z,14.00
2018-05-14T04:19:52.141Z,14.00
2018-05-14T04:22:20.573Z,14.10
2018-05-14T04:24:49.924Z,14.10
2018-05-14T04:27:19.833Z,14.10
2018-05-14T04:29:48.345Z,14.10
2018-05-14T04:32:16.888Z,14.10
2018-05-14T04:34:45.614Z,14.10
2018-05-14T04:37:14.331Z,14.10
2018-05-14T04:39:43.085Z,14.10
2018-05-14T04:42:11.873Z,14.10
2018-05-14T04:44:40.459Z,14.10
2018-05-14T04:47:09.315Z,14.10
2018-05-14T04:49:38.577Z,14.20
2018-05-14T04:52:07.161Z,14.10
2018-05-14T04:54:36.681Z,14.10
2018-05-14T04:57:05.386Z,14.10
2018-05-14T04:59:33.829Z,14.20
2018-05-14T05:02:02.569Z,14.20
2018-05-14T05:04:31.205Z,14.20
2018-05-14T05:07:00.588Z,14.10
2018-05-14T05:09:29.328Z,14.10
2018-05-14T05:11:57.779Z,14.10
2018-05-14T05:14:26.297Z,14.10
2018-05-14T05:16:55.939Z,14.10
2018-05-14T05:19:24.385Z,14.10
2018-05-14T05:21:52.825Z,14.20
2018-05-14T05:24:22.041Z,14.30
2018-05-14T05:26:50.485Z,14.30
2018-05-14T05:29:19.083Z,14.30
2018-05-14T05:31:47.789Z,14.40
2018-05-14T05:34:16.229Z,14.40
2018-05-14T05:36:44.963Z,14.40
2018-05-14T05:39:13.645Z,14.40
2018-05-14T05:41:42.113Z,14.50
2018-05-14T05:44:10.837Z,14.50
2018-05-14T05:46:39.274Z,14.50
2018-05-14T05:49:07.989Z,14.50
2018-05-14T05:51:36.441Z,14.50
2018-05-14T05:54:05.009Z,14.50
2018-05-14T05:56:33.725Z,14.50
2018-05-14T05:59:03.232Z,14.50
2018-05-14T06:01:32.708Z,14.60
2018-05-14T06:04:01.576Z,14.50
2018-05-14T06:06:30.320Z,14.60
2018-05-14T06:08:58.840Z,14.50
2018-05-14T06:11:27.280Z,14.50
2018-05-14T06:13:56.784Z,14.60
2018-05-14T06:16:25.504Z,14.60
2018-05-14T06:18:53.724Z,14.70
2018-05-14T06:21:22.173Z,14.70
2018-05-14T06:23:50.901Z,14.70
2018-05-14T06:26:19.528Z,14.80
2018-05-14T06:28:47.989Z,15.00
2018-05-14T06:31:16.865Z,15.10
2018-05-14T06:33:45.571Z,15.20
2018-05-14T06:36:14.281Z,15.20
2018-05-14T06:38:42.977Z,15.30
2018-05-14T06:41:12.203Z,15.40
2018-05-14T06:43:40.631Z,15.40
2018-05-14T06:46:09.321Z,15.70
2018-05-14T06:48:38.030Z,15.70
2018-05-14T06:51:06.922Z,15.90
2018-05-14T06:53:35.827Z,15.90
2018-05-14T06:56:05.444Z,16.00
2018-05-14T06:58:34.933Z,16.00
2018-05-14T07:01:03.576Z,16.00
2018-05-14T07:03:33.095Z,16.20
2018-05-14T07:06:02.009Z,16.20
2018-05-14T07:08:30.605Z,16.50
2018-05-14T07:10:59.240Z,16.70
2018-05-14T07:13:29.483Z,16.90
2018-05-14T07:15:59.007Z,17.10
2018-05-14T07:18:27.478Z,17.10
2018-05-14T07:20:56.774Z,17.30
2018-05-14T07:23:25.238Z,17.30
2018-05-14T07:25:54.469Z,17.60
2018-05-14T07:28:22.710Z,17.60
2018-05-14T07:30:51.917Z,18.30
2018-05-14T07:33:20.647Z,18.30
2018-05-14T07:35:49.082Z,19.30
2018-05-14T07:38:18.042Z,19.30
2018-05-14T07:40:46.489Z,19.30
2018-05-14T07:43:15.995Z,19.70
2018-05-14T07:45:45.479Z,20.00
2018-05-14T07:48:14.201Z,20.00
2018-05-14T07:50:42.970Z,20.40
2018-05-14T07:53:12.448Z,20.30
2018-05-14T07:55:40.901Z,20.30
2018-05-14T07:58:09.614Z,20.30
2018-05-14T08:00:38.049Z,20.30
2018-05-14T08:03:06.716Z,20.00
2018-05-14T08:05:35.517Z,19.50
2018-05-14T08:08:04.129Z,19.20
2018-05-14T08:10:32.902Z,18.80
2018-05-14T08:13:01.491Z,18.70
2018-05-14T08:15:29.981Z,18.70
2018-05-14T08:17:59.181Z,18.60
2018-05-14T08:20:28.161Z,18.50
2018-05-14T08:22:56.891Z,18.40
2018-05-14T08:25:26.367Z,18.20
2018-05-14T08:27:55.105Z,18.20
2018-05-14T08:30:23.537Z,18.10
2018-05-14T08:32:52.739Z,18.10
2018-05-14T08:35:21.205Z,18.00
2018-05-14T08:37:50.609Z,18.10
2018-05-14T08:40:19.336Z,18.10
2018-05-14T08:42:48.087Z,18.20
2018-05-14T08:45:17.292Z,18.50
2018-05-14T08:47:45.720Z,18.50
2018-05-14T08:50:14.451Z,18.70
2018-05-14T08:52:43.931Z,18.90
2018-05-14T08:55:12.643Z,18.90
2018-05-14T08:57:41.941Z,19.20
2018-05-14T09:00:11.255Z,19.40
2018-05-14T09:02:40.010Z,19.40
2018-05-14T09:05:09.223Z,19.80
2018-05-14T09:07:37.938Z,19.80
2018-05-14T09:10:06.546Z,20.40
2018-05-14T09:12:34.984Z,20.80
2018-05-14T09:15:03.114Z,21.10
2018-05-14T09:17:32.336Z,20.50
2018-05-14T09:20:00.937Z,20.50
2018-05-14T09:22:29.614Z,20.60
2018-05-14T09:24:58.068Z,20.70
2018-05-14T09:27:27.298Z,20.80
2018-05-14T09:29:55.968Z,20.80
2018-05-14T09:32:25.191Z,20.70
2018-05-14T09:34:54.688Z,20.80
2018-05-14T09:37:23.156Z,20.70
2018-05-14T09:39:51.841Z,20.70
2018-05-14T09:42:20.381Z,20.80
2018-05-14T09:44:49.023Z,21.30
2018-05-14T09:47:18.535Z,23.70
2018-05-14T09:49:47.187Z,23.70
2018-05-14T09:52:16.493Z,23.00
2018-05-14T09:54:45.199Z,23.00
2018-05-14T09:57:13.652Z,22.70
2018-05-14T09:59:42.883Z,22.40
2018-05-14T10:02:11.666Z,22.30
2018-05-14T10:04:40.335Z,21.90
2018-05-14T10:07:08.828Z,21.70
2018-05-14T10:09:37.280Z,21.80
2018-05-14T10:12:06.565Z,21.80
2018-05-14T10:14:35.277Z,21.80
2018-05-14T10:17:03.662Z,21.60
2018-05-14T10:19:33.053Z,21.70
2018-05-14T10:22:02.041Z,21.70
2018-05-14T10:24:31.932Z,22.10
2018-05-14T10:27:00.777Z,22.00
2018-05-14T10:29:29.497Z,22.30
2018-05-14T10:31:58.287Z,22.20
2018-05-14T10:34:26.877Z,23.20
2018-05-14T10:36:55.333Z,23.80
2018-05-14T10:39:23.933Z,23.80
2018-05-14T10:41:52.441Z,23.90
2018-05-14T10:44:21.157Z,24.50
2018-05-14T10:46:50.768Z,25.60
2018-05-14T10:49:20.053Z,25.60
2018-05-14T10:51:48.489Z,25.60
2018-05-14T10:54:17.122Z,25.40
2018-05-14T10:56:45.549Z,24.90
2018-05-14T10:59:14.171Z,25.40
2018-05-14T11:01:43.201Z,26.30
2018-05-14T11:04:11.640Z,27.10
2018-05-14T11:06:40.085Z,28.20
2018-05-14T11:09:08.552Z,28.20
2018-05-14T11:11:37.001Z,26.90
2018-05-14T11:14:04.768Z,26.30
2018-05-14T11:16:34.154Z,26.30
2018-05-14T11:19:03.644Z,27.30
2018-05-14T11:21:32.400Z,27.30
2018-05-14T11:24:00.986Z,27.60
2018-05-14T11:26:29.462Z,27.40
2018-05-14T11:28:58.115Z,27.80
2018-05-14T11:31:26.881Z,28.10
2018-05-14T11:33:55.308Z,28.70
2018-05-14T11:36:25.278Z,27.80
2018-05-14T11:38:53.724Z,27.80
2018-05-14T11:41:22.458Z,28.30
2018-05-14T11:43:50.895Z,29.10
2018-05-14T11:46:19.611Z,29.80
2018-05-14T11:48:48.070Z,29.40
2018-05-14T11:51:16.784Z,30.00
2018-05-14T11:53:45.425Z,30.20
2018-05-14T11:56:13.909Z,30.00
2018-05-14T11:58:43.110Z,29.50
2018-05-14T12:01:11.763Z,29.50
2018-05-14T12:03:40.509Z,30.30
2018-05-14T12:06:09.995Z,31.90
2018-05-14T12:08:38.443Z,31.80
2018-05-14T12:11:06.909Z,32.30
2018-05-14T12:13:36.141Z,31.80
2018-05-14T12:16:05.375Z,32.10
2018-05-14T12:18:34.344Z,32.00
2018-05-14T12:21:03.054Z,31.80
2018-05-14T12:23:31.779Z,32.10
2018-05-14T12:26:01.525Z,32.20
2018-05-14T12:28:31.005Z,32.40
2018-05-14T12:30:59.565Z,32.30
2018-05-14T12:33:29.529Z,32.20
2018-05-14T12:35:59.015Z,32.50
2018-05-14T12:38:28.241Z,32.40
2018-05-14T12:40:56.683Z,32.40
2018-05-14T12:43:25.881Z,33.20
2018-05-14T12:45:55.097Z,33.10
2018-05-14T12:48:24.587Z,32.30
2018-05-14T12:50:53.153Z,32.30
2018-05-14T12:53:22.373Z,31.60
2018-05-14T12:55:50.815Z,31.50
2018-05-14T12:58:19.527Z,31.40
2018-05-14T13:00:48.227Z,31.90
2018-05-14T13:03:16.669Z,31.10
2018-05-14T13:05:45.105Z,30.90
2018-05-14T13:08:13.581Z,31.10
2018-05-14T13:10:42.021Z,30.40
2018-05-14T13:13:11.008Z,29.70
2018-05-14T13:15:39.720Z,29.60
2018-05-14T13:18:08.503Z,29.90
2018-05-14T13:20:37.005Z,30.50
2018-05-14T13:23:06.507Z,30.30
2018-05-14T13:25:34.636Z,30.30
2018-05-14T13:28:02.743Z,30.60
2018-05-14T13:30:30.844Z,30.80
2018-05-14T13:33:00.123Z,30.20
2018-05-14T13:35:29.521Z,29.50
2018-05-14T13:37:58.055Z,29.50
2018-05-14T13:40:26.610Z,29.00
2018-05-14T13:42:55.011Z,29.00
2018-05-14T13:45:23.872Z,29.30
2018-05-14T13:47:52.584Z,29.20
2018-05-14T13:50:21.188Z,29.00
2018-05-14T13:52:50.418Z,29.10
2018-05-14T13:55:18.962Z,29.10
2018-05-14T13:57:47.392Z,28.60
2018-05-14T14:00:17.190Z,28.40
2018-05-14T14:02:45.628Z,28.30
2018-05-14T14:05:14.341Z,27.40
2018-05-14T14:07:43.460Z,27.20
2018-05-14T14:10:11.900Z,27.50
2018-05-14T14:12:41.105Z,27.10
2018-05-14T14:15:09.832Z,27.10
2018-05-14T14:17:38.271Z,26.80
2018-05-14T14:20:06.994Z,26.90
2018-05-14T14:22:35.452Z,27.60
2018-05-14T14:25:04.147Z,28.80
2018-05-14T14:27:32.786Z,29.50
2018-05-14T14:30:01.518Z,29.30
2018-05-14T14:32:30.154Z,29.20
2018-05-14T14:34:58.614Z,28.00
2018-05-14T14:37:27.362Z,26.80
2018-05-14T14:39:56.828Z,25.70
2018-05-14T14:42:25.560Z,25.70
2018-05-14T14:44:54.011Z,25.50
2018-05-14T14:47:22.713Z,26.10
2018-05-14T14:49:51.518Z,26.10
2018-05-14T14:52:20.645Z,26.70
2018-05-14T14:54:49.082Z,26.70
2018-05-14T14:57:17.835Z,27.40
2018-05-14T14:59:46.541Z,27.80
2018-05-14T15:02:14.637Z,28.40
2018-05-14T15:04:43.561Z,29.30
2018-05-14T15:07:12.073Z,29.70
2018-05-14T15:09:40.638Z,29.10
2018-05-14T15:12:09.409Z,28.00
2018-05-14T15:14:38.245Z,27.20
2018-05-14T15:17:06.973Z,26.30
2018-05-14T15:19:35.652Z,25.80
2018-05-14T15:22:04.297Z,25.60
2018-05-14T15:24:33.047Z,25.90
2018-05-14T15:27:01.417Z,25.50
2018-05-14T15:29:29.877Z,25.40
2018-05-14T15:31:59.041Z,24.80
2018-05-14T15:34:27.665Z,24.40
2018-05-14T15:36:56.293Z,24.00
2018-05-14T15:39:24.909Z,23.90
2018-05-14T15:41:53.682Z,23.60
2018-05-14T15:44:22.130Z,23.60
2018-05-14T15:46:50.851Z,23.40
2018-05-14T15:49:20.324Z,23.40
2018-05-14T15:51:49.519Z,23.30
2018-05-14T15:54:18.756Z,22.90
2018-05-14T15:56:48.233Z,22.90
2018-05-14T15:59:16.679Z,22.80
2018-05-14T16:01:45.412Z,22.90
2018-05-14T16:04:14.798Z,22.80
2018-05-14T16:06:44.204Z,22.60
2018-05-14T16:09:12.969Z,22.50
2018-05-14T16:11:41.460Z,22.40
2018-05-14T16:14:10.182Z,22.40
2018-05-14T16:16:38.642Z,22.20
2018-05-14T16:19:07.221Z,22.10
2018-05-14T16:21:35.950Z,22.00
2018-05-14T16:24:04.107Z,21.90
2018-05-14T16:26:34.049Z,21.70
2018-05-14T16:29:03.071Z,21.60
2018-05-14T16:31:32.269Z,21.70
2018-05-14T16:34:01.485Z,21.50
2018-05-14T16:36:30.185Z,21.50
2018-05-14T16:38:58.907Z,21.50
2018-05-14T16:41:27.343Z,21.50
2018-05-14T16:43:56.833Z,21.40
2018-05-14T16:46:25.544Z,21.40
2018-05-14T16:48:53.969Z,21.30
2018-05-14T16:51:22.613Z,21.20
2018-05-14T16:53:51.061Z,21.10
2018-05-14T16:56:19.494Z,21.10
2018-05-14T16:58:47.957Z,21.00
2018-05-14T17:01:16.677Z,20.90
2018-05-14T17:03:45.511Z,20.90
2018-05-14T17:06:14.049Z,20.90
2018-05-14T17:08:42.737Z,20.80
2018-05-14T17:11:11.429Z,20.70
2018-05-14T17:13:40.221Z,20.70
2018-05-14T17:16:09.712Z,20.50
2018-05-14T17:18:38.407Z,20.50
2018-05-14T17:21:07.101Z,20.50
2018-05-14T17:23:36.327Z,20.50
2018-05-14T17:26:04.101Z,20.40
2018-05-14T17:28:32.757Z,20.50
2018-05-14T17:31:01.581Z,20.40
2018-05-14T17:33:30.017Z,20.30
2018-05-14T17:35:58.736Z,20.30
2018-05-14T17:38:27.477Z,20.30
2018-05-14T17:40:56.174Z,20.30
2018-05-14T17:43:24.896Z,20.30
2018-05-14T17:45:53.324Z,20.30
2018-05-14T17:48:22.520Z,20.20
2018-05-14T17:50:51.741Z,20.10
2018-05-14T17:53:21.050Z,20.00
2018-05-14T17:55:49.611Z,20.00
2018-05-14T17:58:18.804Z,20.00
2018-05-14T18:00:47.523Z,19.90
2018-05-14T18:03:16.264Z,19.90
2018-05-14T18:05:45.026Z,19.90
2018-05-14T18:08:13.767Z,19.90
2018-05-14T18:10:42.485Z,19.70
2018-05-14T18:13:10.948Z,19.70
2018-05-14T18:15:40.220Z,19.60
2018-05-14T18:18:08.436Z,19.60
2018-05-14T18:20:37.832Z,19.60
2018-05-14T18:23:06.048Z,19.60
2018-05-14T18:25:40.618Z,19.50
2018-05-14T18:28:08.829Z,19.50
2018-05-14T18:30:39.564Z,19.40
2018-05-14T18:33:11.225Z,19.40
2018-05-14T18:35:45.281Z,19.30
2018-05-14T18:38:13.736Z,19.30
2018-05-14T18:40:42.436Z,19.20
2018-05-14T18:43:10.900Z,19.20
2018-05-14T18:45:40.220Z,19.10
2018-05-14T18:48:08.684Z,19.10
2018-05-14T18:50:37.908Z,19.10
2018-05-14T18:53:06.353Z,19.10
2018-05-14T18:55:35.904Z,18.90
2018-05-14T18:58:04.700Z,18.90
2018-05-14T19:00:33.397Z,18.90
2018-05-14T19:03:02.254Z,18.80
2018-05-14T19:05:30.696Z,18.70
2018-05-14T19:07:59.310Z,18.70
2018-05-14T19:10:33.785Z,18.60
2018-05-14T19:13:02.224Z,18.50
2018-05-14T19:15:36.526Z,18.50
2018-05-14T19:18:05.234Z,18.50
2018-05-14T19:20:33.986Z,18.40
2018-05-14T19:23:08.140Z,18.30
2018-05-14T19:25:36.575Z,18.20
2018-05-14T19:31:10.209Z,18.00
2018-05-14T19:33:45.108Z,17.90
2018-05-14T19:36:13.836Z,17.90
2018-05-14T19:38:43.110Z,17.80
2018-05-14T19:41:11.728Z,17.80
2018-05-14T19:43:40.862Z,17.80
2018-05-14T19:46:09.594Z,17.70
2018-05-14T19:48:38.529Z,17.80
2018-05-14T19:51:07.451Z,17.70
2018-05-14T19:53:36.510Z,17.70
2018-05-14T19:56:04.624Z,17.60
2018-05-14T19:58:33.337Z,17.60
2018-05-14T20:01:02.897Z,17.50
2018-05-14T20:03:32.494Z,17.40
2018-05-14T20:06:01.786Z,17.40
2018-05-14T20:08:31.324Z,17.20
2018-05-14T20:10:59.986Z,17.20
2018-05-14T20:13:28.614Z,17.10
2018-05-14T20:15:58.117Z,17.00
2018-05-14T20:18:28.554Z,17.00
2018-05-14T20:20:58.023Z,17.00
2018-05-14T20:23:26.690Z,16.90
2018-05-14T20:25:55.419Z,16.90
2018-05-14T20:28:23.861Z,16.90
2018-05-14T20:30:53.163Z,16.80
2018-05-14T20:33:22.391Z,16.80
2018-05-14T20:35:50.830Z,16.70
2018-05-14T20:38:19.435Z,16.70
2018-05-14T20:40:48.030Z,16.60
2018-05-14T20:43:16.505Z,16.70
2018-05-14T20:45:45.318Z,16.60
2018-05-14T20:48:13.761Z,16.70
2018-05-14T20:50:42.453Z,16.60
2018-05-14T20:53:10.905Z,16.70
2018-05-14T20:55:39.675Z,16.70
2018-05-14T20:58:08.114Z,16.60
2018-05-14T21:00:37.063Z,16.60
2018-05-14T21:03:05.729Z,16.60
2018-05-14T21:05:34.243Z,16.50
2018-05-14T21:08:03.457Z,16.50
2018-05-14T21:10:32.213Z,16.50
2018-05-14T21:13:00.672Z,16.40
2018-05-14T21:15:30.413Z,16.40
2018-05-14T21:17:59.103Z,16.30
2018-05-14T21:20:27.857Z,16.30
2018-05-14T21:22:56.549Z,16.30
2018-05-14T21:25:25.249Z,16.30
2018-05-14T21:27:54.475Z,16.10
2018-05-14T21:30:22.915Z,16.10
2018-05-14T21:32:51.654Z,16.00
2018-05-14T21:35:20.324Z,15.90
2018-05-14T21:37:49.029Z,15.80
2018-05-14T21:40:17.480Z,15.80
2018-05-14T21:42:45.911Z,15.80
2018-05-14T21:45:14.361Z,15.80
2018-05-14T21:47:43.101Z,15.90
2018-05-14T21:50:11.799Z,15.90
2018-05-14T21:52:40.996Z,16.00
2018-05-14T21:55:10.278Z,16.00
2018-05-14T21:57:38.973Z,16.00
2018-05-14T22:00:07.004Z,16.10
2018-05-14T22:02:35.739Z,16.00
2018-05-14T22:05:04.074Z,16.00
2018-05-14T22:07:32.555Z,16.00
2018-05-14T22:10:01.247Z,16.00
2018-05-14T22:12:29.903Z,16.00
2018-05-14T22:14:58.475Z,15.90
2018-05-14T22:17:27.177Z,15.90
2018-05-14T22:19:55.628Z,16.00
2018-05-14T22:22:25.017Z,15.90
2018-05-14T22:24:53.590Z,15.90
2018-05-14T22:27:22.291Z,15.80
2018-05-14T22:29:50.673Z,15.80
2018-05-14T22:32:19.533Z,15.80
2018-05-14T22:34:48.230Z,15.80
2018-05-14T22:37:17.522Z,15.70
2018-05-14T22:39:46.841Z,15.70
2018-05-14T22:42:15.393Z,15.60
2018-05-14T22:44:44.550Z,15.60
2018-05-14T22:47:13.213Z,15.60
2018-05-14T22:49:41.909Z,15.50
2018-05-14T22:52:11.396Z,15.40
2018-05-14T22:54:39.825Z,15.40
2018-05-14T22:57:08.273Z,15.30
2018-05-14T22:59:37.738Z,15.20
2018-05-14T23:02:06.939Z,15.20
2018-05-14T23:04:35.461Z,15.20
2018-05-14T23:07:03.901Z,15.10
2018-05-14T23:09:32.625Z,15.10
2018-05-14T23:12:01.057Z,15.00
2018-05-14T23:14:30.491Z,14.80
2018-05-14T23:16:58.924Z,14.80
2018-05-14T23:19:27.608Z,14.70
2018-05-14T23:21:56.563Z,14.60
2018-05-14T23:24:25.686Z,14.50
2018-05-14T23:26:54.116Z,14.40
2018-05-14T23:29:40.411Z,14.30
2018-05-14T23:32:12.632Z,14.30
2018-05-14T23:34:41.370Z,14.20
2018-05-14T23:37:09.461Z,14.10
2018-05-14T23:39:37.895Z,14.10
2018-05-14T23:42:07.120Z,14.00
2018-05-14T23:44:36.602Z,14.00
2018-05-14T23:47:05.299Z,13.90
2018-05-14T23:49:34.380Z,13.80
2018-05-14T23:52:02.750Z,13.80
2018-05-14T23:54:31.933Z,13.70
2018-05-14T23:57:00.381Z,13.70
2018-05-14T23:59:28.817Z,13.50
